createdAt,value
2017-06-16T00:03:44.520Z,1007.76
2017-06-16T00:08:40.259Z,1007.76
2017-06-16T00:13:35.971Z,1007.85
2017-06-16T00:18:31.545Z,1007.87
2017-06-16T00:23:27.516Z,1007.84
2017-06-16T00:28:23.638Z,1007.95
2017-06-16T00:33:19.764Z,1007.89
2017-06-16T00:38:15.916Z,1007.95
2017-06-16T00:43:12.729Z,1008.03
2017-06-16T00:48:08.200Z,1007.95
2017-06-16T00:53:05.324Z,1007.98
2017-06-16T00:58:00.498Z,1008.00
2017-06-16T01:02:56.374Z,1008.06
2017-06-16T01:07:53.404Z,1008.17
2017-06-16T01:12:48.937Z,1008.24
2017-06-16T01:17:46.013Z,1008.22
2017-06-16T01:22:42.250Z,1008.34
2017-06-16T01:27:39.038Z,1008.39
2017-06-16T01:32:36.298Z,1008.49
2017-06-16T01:37:31.794Z,1008.37
2017-06-16T01:42:27.638Z,1008.40
2017-06-16T01:47:23.530Z,1008.40
2017-06-16T01:52:20.524Z,1008.42
2017-06-16T01:57:17.128Z,1008.54
2017-06-16T02:02:12.706Z,1008.56
2017-06-16T02:07:09.316Z,1008.48
2017-06-16T02:12:05.503Z,1008.67
2017-06-16T02:17:02.382Z,1008.64
2017-06-16T02:21:57.957Z,1008.65
2017-06-16T02:26:54.521Z,1008.71
2017-06-16T02:31:50.338Z,1008.80
2017-06-16T02:36:46.045Z,1008.71
2017-06-16T02:41:42.098Z,1008.86
2017-06-16T02:46:37.902Z,1008.78
2017-06-16T02:51:33.727Z,1008.76
2017-06-16T02:56:29.593Z,1008.81
2017-06-16T03:01:26.372Z,1008.83
2017-06-16T03:06:22.610Z,1008.89
2017-06-16T03:11:18.398Z,1008.98
2017-06-16T03:16:14.208Z,1008.99
2017-06-16T03:21:10.332Z,1009.10
2017-06-16T03:26:05.987Z,1009.12
2017-06-16T03:31:02.060Z,1009.15
2017-06-16T03:35:59.044Z,1009.26
2017-06-16T03:40:54.934Z,1009.27
2017-06-16T03:45:50.823Z,1009.28
2017-06-16T03:50:46.861Z,1009.37
2017-06-16T03:55:42.851Z,1009.33
2017-06-16T04:00:39.763Z,1009.40
2017-06-16T04:05:36.499Z,1009.46
2017-06-16T04:10:31.979Z,1009.50
2017-06-16T04:15:28.370Z,1009.51
2017-06-16T04:20:24.535Z,1009.59
2017-06-16T04:25:21.864Z,1009.61
2017-06-16T04:30:18.605Z,1009.65
2017-06-16T04:35:15.558Z,1009.63
2017-06-16T04:40:12.007Z,1009.64
2017-06-16T04:45:08.572Z,1009.71
2017-06-16T04:50:04.341Z,1009.73
2017-06-16T04:55:00.380Z,1009.73
2017-06-16T04:59:56.085Z,1009.77
2017-06-16T05:04:52.619Z,1009.96
2017-06-16T05:09:49.449Z,1010.03
2017-06-16T05:14:45.810Z,1009.97
2017-06-16T05:19:41.794Z,1009.96
2017-06-16T05:24:37.615Z,1009.92
2017-06-16T05:29:33.255Z,1010.05
2017-06-16T05:34:29.333Z,1010.07
2017-06-16T05:39:25.235Z,1010.11
2017-06-16T05:44:21.039Z,1010.12
2017-06-16T05:49:17.248Z,1010.13
2017-06-16T05:54:13.500Z,1010.18
2017-06-16T05:59:09.528Z,1010.19
2017-06-16T06:04:05.522Z,1010.19
2017-06-16T06:09:01.777Z,1010.38
2017-06-16T06:13:58.686Z,1010.38
2017-06-16T06:18:54.588Z,1010.45
2017-06-16T06:23:50.590Z,1010.42
2017-06-16T06:28:46.458Z,1010.50
2017-06-16T06:33:43.234Z,1010.62
2017-06-16T06:38:38.498Z,1010.70
2017-06-16T06:43:34.300Z,1010.75
2017-06-16T06:48:29.887Z,1010.96
2017-06-16T06:53:25.767Z,1011.12
2017-06-16T06:58:21.522Z,1011.23
2017-06-16T07:03:17.954Z,1011.20
2017-06-16T07:08:13.781Z,1011.12
2017-06-16T07:13:10.364Z,1011.10
2017-06-16T07:18:06.533Z,1011.10
2017-06-16T07:23:03.661Z,1011.07
2017-06-16T07:27:59.180Z,1011.08
2017-06-16T07:32:55.312Z,1011.12
2017-06-16T07:37:51.259Z,1011.12
2017-06-16T07:42:47.544Z,1011.08
2017-06-16T07:47:45.002Z,1011.23
2017-06-16T07:52:42.464Z,1011.22
2017-06-16T07:57:39.491Z,1011.23
2017-06-16T08:02:39.321Z,1011.30
2017-06-16T08:07:34.521Z,1011.18
2017-06-16T08:12:29.578Z,1011.39
2017-06-16T08:17:24.378Z,1011.42
2017-06-16T08:22:19.398Z,1011.34
2017-06-16T08:27:15.737Z,1011.49
2017-06-16T08:32:11.061Z,1011.37
2017-06-16T08:37:07.384Z,1011.60
2017-06-16T08:42:06.793Z,1011.67
2017-06-16T08:47:02.595Z,1011.38
2017-06-16T08:51:58.097Z,1011.43
2017-06-16T08:56:55.194Z,1011.47
2017-06-16T09:01:50.864Z,1011.61
2017-06-16T09:06:47.667Z,1011.73
2017-06-16T09:11:44.803Z,1011.76
2017-06-16T09:16:39.872Z,1011.90
2017-06-16T09:21:34.937Z,1011.93
2017-06-16T09:26:31.477Z,1012.04
2017-06-16T09:31:27.953Z,1012.15
2017-06-16T09:36:23.365Z,1012.20
2017-06-16T09:41:19.902Z,1012.28
2017-06-16T09:46:15.053Z,1012.32
2017-06-16T09:51:10.566Z,1012.34
2017-06-16T09:56:07.690Z,1012.46
2017-06-16T10:01:03.697Z,1012.43
2017-06-16T10:06:01.880Z,1012.42
2017-06-16T10:10:58.412Z,1012.36
2017-06-16T10:15:53.406Z,1012.41
2017-06-16T10:20:48.923Z,1012.67
2017-06-16T10:25:45.387Z,1012.68
2017-06-16T10:30:42.185Z,1012.71
2017-06-16T10:35:37.679Z,1012.78
2017-06-16T10:40:34.900Z,1012.86
2017-06-16T10:45:30.049Z,1013.02
2017-06-16T10:50:25.406Z,1013.11
2017-06-16T10:55:21.281Z,1013.09
2017-06-16T11:00:17.580Z,1013.01
2017-06-16T11:05:16.728Z,1013.12
2017-06-16T11:10:13.495Z,1012.99
2017-06-16T11:15:09.371Z,1013.11
2017-06-16T11:20:04.120Z,1013.15
2017-06-16T11:25:00.406Z,1013.11
2017-06-16T11:29:56.127Z,1013.25
2017-06-16T11:34:51.930Z,1013.32
2017-06-16T11:39:49.127Z,1013.25
2017-06-16T11:44:44.913Z,1013.35
2017-06-16T11:49:41.549Z,1013.33
2017-06-16T11:54:37.951Z,1013.46
2017-06-16T11:59:33.426Z,1013.56
2017-06-16T12:04:30.541Z,1013.62
2017-06-16T12:09:26.746Z,1013.50
2017-06-16T12:14:23.771Z,1013.51
2017-06-16T12:19:19.970Z,1013.64
2017-06-16T12:24:15.385Z,1013.69
2017-06-16T12:29:11.180Z,1013.67
2017-06-16T12:34:07.369Z,1013.71
2017-06-16T12:39:03.213Z,1013.78
2017-06-16T12:43:59.445Z,1013.86
2017-06-16T12:48:55.843Z,1013.89
2017-06-16T12:53:53.039Z,1013.85
2017-06-16T12:58:48.904Z,1013.80
2017-06-16T13:03:44.675Z,1013.79
2017-06-16T13:08:40.903Z,1013.82
2017-06-16T13:13:37.751Z,1013.85
2017-06-16T13:18:33.468Z,1013.87
2017-06-16T13:23:29.321Z,1013.84
2017-06-16T13:28:26.872Z,1013.97
2017-06-16T13:33:22.766Z,1013.93
2017-06-16T13:38:18.000Z,1013.96
2017-06-16T13:43:14.309Z,1014.09
2017-06-16T13:48:10.510Z,1014.14
2017-06-16T13:53:06.347Z,1014.25
2017-06-16T13:58:04.094Z,1014.16
2017-06-16T14:03:00.406Z,1014.24
2017-06-16T14:07:56.462Z,1014.22
2017-06-16T14:12:53.744Z,1014.34
2017-06-16T14:17:49.324Z,1014.26
2017-06-16T14:22:45.030Z,1014.44
2017-06-16T14:27:42.137Z,1014.43
2017-06-16T14:32:38.241Z,1014.37
2017-06-16T14:37:34.069Z,1014.39
2017-06-16T14:42:29.756Z,1014.39
2017-06-16T14:47:25.825Z,1014.47
2017-06-16T14:52:21.981Z,1014.52
2017-06-16T14:57:17.590Z,1014.43
2017-06-16T15:02:13.205Z,1014.59
2017-06-16T15:07:08.549Z,1014.70
2017-06-16T15:12:05.014Z,1014.69
2017-06-16T15:17:01.535Z,1014.64
2017-06-16T15:21:57.437Z,1014.66
2017-06-16T15:26:53.185Z,1014.79
2017-06-16T15:31:49.173Z,1014.88
2017-06-16T15:36:45.782Z,1014.86
2017-06-16T15:41:42.835Z,1015.07
2017-06-16T15:46:38.483Z,1014.89
2017-06-16T15:51:34.165Z,1014.85
2017-06-16T15:56:30.809Z,1015.02
2017-06-16T16:01:26.016Z,1014.93
2017-06-16T16:06:22.978Z,1014.94
2017-06-16T16:11:19.641Z,1015.03
2017-06-16T16:16:15.273Z,1015.11
2017-06-16T16:21:11.541Z,1015.01
2017-06-16T16:26:07.499Z,1015.16
2017-06-16T16:31:03.415Z,1015.14
2017-06-16T16:35:59.266Z,1015.09
2017-06-16T16:40:56.100Z,1015.07
2017-06-16T16:45:51.340Z,1015.24
2017-06-16T16:50:48.350Z,1015.35
2017-06-16T16:55:45.346Z,1015.40
2017-06-16T17:00:41.133Z,1015.37
2017-06-16T17:05:37.195Z,1015.48
2017-06-16T17:10:33.433Z,1015.41
2017-06-16T17:15:29.819Z,1015.45
2017-06-16T17:20:25.447Z,1015.47
2017-06-16T17:25:21.434Z,1015.47
2017-06-16T17:30:18.165Z,1015.55
2017-06-16T17:35:13.602Z,1015.63
2017-06-16T17:40:09.407Z,1015.66
2017-06-16T17:45:05.400Z,1015.81
2017-06-16T17:50:01.223Z,1015.79
2017-06-16T17:54:58.559Z,1015.81
2017-06-16T17:59:53.603Z,1015.84
2017-06-16T18:04:49.835Z,1015.78
2017-06-16T18:09:45.738Z,1015.84
2017-06-16T18:14:42.575Z,1015.83
2017-06-16T18:19:38.493Z,1015.88
2017-06-16T18:24:34.971Z,1015.91
2017-06-16T18:29:31.817Z,1016.00
2017-06-16T18:34:27.148Z,1016.14
2017-06-16T18:39:23.556Z,1015.93
2017-06-16T18:44:19.292Z,1016.07
2017-06-16T18:49:14.953Z,1016.10
2017-06-16T18:54:11.003Z,1016.15
2017-06-16T18:59:07.010Z,1016.22
2017-06-16T19:04:03.138Z,1016.28
2017-06-16T19:08:59.109Z,1016.32
2017-06-16T19:13:56.380Z,1016.32
2017-06-16T19:18:52.038Z,1016.30
2017-06-16T19:23:47.808Z,1016.33
2017-06-16T19:28:44.244Z,1016.52
2017-06-16T19:33:40.328Z,1016.47
2017-06-16T19:38:36.445Z,1016.51
2017-06-16T19:43:32.121Z,1016.51
2017-06-16T19:48:27.996Z,1016.49
2017-06-16T19:53:25.060Z,1016.58
2017-06-16T19:58:20.272Z,1016.65
2017-06-16T20:03:17.159Z,1016.78
2017-06-16T20:08:12.796Z,1016.80
2017-06-16T20:13:08.505Z,1016.92
2017-06-16T20:18:05.400Z,1016.98
2017-06-16T20:23:01.797Z,1017.03
2017-06-16T20:27:57.508Z,1017.11
2017-06-16T20:32:53.233Z,1017.06
2017-06-16T20:37:48.920Z,1017.03
2017-06-16T20:42:45.189Z,1017.15
2017-06-16T20:47:40.887Z,1017.19
2017-06-16T20:52:37.215Z,1017.13
2017-06-16T20:57:32.860Z,1017.23
2017-06-16T21:02:28.930Z,1017.28
2017-06-16T21:07:26.010Z,1017.34
2017-06-16T21:12:21.704Z,1017.35
2017-06-16T21:17:17.355Z,1017.37
2017-06-16T21:22:13.470Z,1017.30
2017-06-16T21:27:10.244Z,1017.35
2017-06-16T21:32:05.926Z,1017.57
2017-06-16T21:37:01.450Z,1017.55
2017-06-16T21:41:57.301Z,1017.58
2017-06-16T21:46:52.953Z,1017.60
2017-06-16T21:51:49.495Z,1017.64
2017-06-16T21:56:46.282Z,1017.64
2017-06-16T22:01:41.799Z,1017.61
2017-06-16T22:06:37.726Z,1017.56
2017-06-16T22:11:34.146Z,1017.60
2017-06-16T22:16:30.300Z,1017.58
2017-06-16T22:21:26.936Z,1017.50
2017-06-16T22:26:22.574Z,1017.57
2017-06-16T22:31:18.432Z,1017.73
2017-06-16T22:36:14.261Z,1017.54
2017-06-16T22:41:10.039Z,1017.52
2017-06-16T22:46:05.783Z,1017.56
2017-06-16T22:51:01.696Z,1017.67
2017-06-16T22:55:58.611Z,1017.65
2017-06-16T23:00:54.242Z,1017.61
2017-06-16T23:05:49.978Z,1017.69
2017-06-16T23:10:45.728Z,1017.65
2017-06-16T23:15:41.539Z,1017.71
2017-06-16T23:20:37.322Z,1017.71
2017-06-16T23:25:33.110Z,1017.61
2017-06-16T23:30:29.411Z,1017.68
2017-06-16T23:35:26.105Z,1017.65
2017-06-16T23:40:22.994Z,1017.60
2017-06-16T23:45:19.463Z,1017.60
2017-06-16T23:50:14.894Z,1017.74
2017-06-16T23:55:11.189Z,1017.70
